Time;durP1;ratioP1;P1;durP2;ratioP2;P2;SDS_P1;SDS_P2;PMS_P1;PMS_P2;Temp;Humidity;BMP_temperature;BMP_pressure;BME280_temperature;BME280_humidity;BME280_pressure;Samples;Min_cycle;Max_cycle;Signal;HPM_P1;HPM_P2
2023/08/10 00:02:47;;;;;;;4.97;2.30;;;;;;;;;;21005793;28;20676;-62
2023/08/10 00:12:49;;;;;;;5.83;2.20;;;;;;;;;;20994634;28;20280;-65
2023/08/10 00:22:52;;;;;;;4.87;2.50;;;;;;;;;;20993753;28;20321;-65
2023/08/10 00:32:54;;;;;;;5.17;2.33;;;;;;;;;;20993682;28;20215;-63
2023/08/10 00:42:58;;;;;;;5.17;2.67;;;;;;;;;;21003913;28;20243;-62
2023/08/10 00:53:00;;;;;;;3.90;2.37;;;;;;;;;;21007610;28;20229;-63
2023/08/10 01:03:03;;;;;;;6.87;2.37;;;;;;;;;;21007333;28;20235;-63
2023/08/10 01:13:22;;;;;;;6.83;2.27;;;;;;;;;;21006131;28;20230;-66
2023/08/10 01:23:41;;;;;;;3.97;2.30;;;;;;;;;;21005492;28;20278;-65
2023/08/10 01:33:43;;;;;;;2.90;2.17;;;14.90;99.60;;;;;;21005036;28;20783;-70
2023/08/10 01:43:45;;;;;;;5.90;2.23;;;13.70;99.90;;;;;;21003917;28;20233;-71
2023/08/10 01:53:47;;;;;;;4.80;2.50;;;13.70;99.90;;;;;;21002133;28;20213;-68
2023/08/10 02:03:49;;;;;;;5.03;2.20;;;13.70;99.90;;;;;;21002648;28;20322;-67
2023/08/10 02:13:51;;;;;;;4.70;2.30;;;13.70;99.90;;;;;;21001414;28;20655;-68
2023/08/10 02:23:53;;;;;;;3.43;2.20;;;13.60;99.90;;;;;;21000364;28;20329;-66
2023/08/10 02:33:55;;;;;;;4.37;2.43;;;13.60;99.90;;;;;;20999924;28;20300;-67
2023/08/10 02:43:56;;;;;;;5.43;2.40;;;13.50;99.90;;;;;;20998689;28;20277;-69
2023/08/10 02:53:58;;;;;;;11.67;5.47;;;13.40;99.90;;;;;;20998206;28;20264;-67
2023/08/10 03:04:00;;;;;;;18.53;6.13;;;13.50;99.90;;;;;;20997465;28;20237;-69
2023/08/10 03:14:02;;;;;;;20.73;7.50;;;13.50;99.90;;;;;;20996565;28;20231;-61
2023/08/10 03:24:04;;;;;;;21.93;8.50;;;13.50;99.90;;;;;;20996277;28;20234;-67
2023/08/10 03:34:06;;;;;;;30.40;11.60;;;13.60;99.90;;;;;;20996125;28;20214;-63
2023/08/10 03:44:08;;;;;;;17.20;7.70;;;13.50;99.90;;;;;;20995358;28;20239;-68
2023/08/10 03:54:10;;;;;;;12.00;6.53;;;13.50;99.90;;;;;;20995073;28;20227;-63
2023/08/10 04:04:13;;;;;;;17.40;6.33;;;13.60;99.90;;;;;;20994193;28;20330;-69
2023/08/10 04:14:14;;;;;;;7.90;5.33;;;13.60;99.90;;;;;;21000868;28;20210;-66
2023/08/10 04:24:16;;;;;;;7.40;4.93;;;13.70;99.90;;;;;;21009867;28;20240;-67
2023/08/10 04:34:20;;;;;;;10.87;7.00;;;13.80;99.90;;;;;;20991549;28;20207;-70
2023/08/10 04:44:22;;;;;;;9.33;7.00;;;13.90;99.90;;;;;;21008604;28;20228;-70
2023/08/10 04:54:23;;;;;;;15.40;7.80;;;13.90;99.90;;;;;;21007603;28;20654;-70
2023/08/10 05:04:25;;;;;;;40.57;7.03;;;14.00;99.90;;;;;;21006535;28;20332;-63
2023/08/10 05:14:27;;;;;;;10.77;6.80;;;13.80;99.90;;;;;;21006317;28;20214;-62
2023/08/10 05:24:28;;;;;;;7.23;5.27;;;13.90;99.90;;;;;;21004005;28;20231;-72
2023/08/10 05:34:30;;;;;;;10.83;6.43;;;14.20;99.90;;;;;;21004446;28;20283;-70
2023/08/10 05:44:32;;;;;;;7.67;5.97;;;14.30;99.90;;;;;;21003902;28;20585;-65
2023/08/10 05:54:34;;;;;;;6.90;5.13;;;;;;;;;;20985022;28;20214;-61
2023/08/10 06:04:37;;;;;;;6.57;5.00;;;;;;;;;;21001782;28;20252;-71
2023/08/10 06:14:39;;;;;;;5.00;4.27;;;;;;;;;;21001672;28;20565;-70
2023/08/10 06:24:41;;;;;;;7.10;4.77;;;;;;;;;;21000392;28;20698;-71
2023/08/10 06:34:43;;;;;;;9.53;5.20;;;;;;;;;;20999250;28;20214;-69
2023/08/10 06:44:45;;;;;;;7.33;5.23;;;14.50;99.90;;;;;;20998692;28;20766;-70
2023/08/10 06:54:46;;;;;;;9.53;5.03;;;16.20;99.90;;;;;;20997794;28;20210;-62
2023/08/10 07:04:48;;;;;;;8.67;4.67;;;16.30;99.90;;;;;;20996900;28;20244;-62
2023/08/10 07:14:50;;;;;;;6.73;4.00;;;16.50;99.90;;;;;;20997254;28;20657;-61
2023/08/10 07:24:51;;;;;;;8.67;4.07;;;16.80;99.90;;;;;;20996039;28;20239;-62
2023/08/10 07:34:53;;;;;;;7.60;3.80;;;16.90;99.90;;;;;;20995945;28;20205;-65
2023/08/10 07:44:55;;;;;;;9.17;3.90;;;17.00;99.70;;;;;;20995352;28;20233;-61
2023/08/10 07:54:57;;;;;;;4.67;3.40;;;17.30;99.50;;;;;;20994012;28;20305;-63
2023/08/10 08:04:59;;;;;;;4.23;3.47;;;17.60;99.10;;;;;;20994339;28;20327;-68
2023/08/10 08:15:03;;;;;;;7.93;3.40;;;17.70;98.80;;;;;;20994622;28;20203;-62
2023/08/10 08:25:05;;;;;;;6.83;3.13;;;17.90;98.70;;;;;;20993767;28;20719;-68
2023/08/10 08:35:07;;;;;;;10.63;3.17;;;18.30;97.90;;;;;;20993504;28;20214;-66
2023/08/10 08:45:10;;;;;;;4.63;2.60;;;18.50;97.80;;;;;;20993167;28;20269;-64
2023/08/10 08:55:12;;;;;;;3.07;2.00;;;18.90;97.30;;;;;;20992306;28;20207;-65
2023/08/10 09:05:13;;;;;;;3.73;2.20;;;19.10;96.40;;;;;;21004227;28;20717;-66
2023/08/10 09:15:17;;;;;;;5.10;1.93;;;19.40;94.80;;;;;;21006343;28;20213;-67
2023/08/10 09:25:19;;;;;;;3.07;2.00;;;19.60;93.90;;;;;;21005418;28;20231;-62
2023/08/10 09:35:21;;;;;;;3.27;1.70;;;19.80;92.90;;;;;;21004775;28;20207;-69
2023/08/10 09:45:23;;;;;;;5.60;1.97;;;20.10;91.60;;;;;;21004628;28;20227;-62
2023/08/10 09:55:25;;;;;;;3.67;2.10;;;20.30;90.20;;;;;;21003835;28;20203;-63
2023/08/10 10:05:27;;;;;;;2.10;1.83;;;20.30;89.20;;;;;;20984460;28;20237;-63
2023/08/10 10:15:39;;;;;;;2.27;1.70;;;20.60;86.20;;;;;;21001664;28;20727;-62
2023/08/10 10:25:57;;;;;;;2.60;1.87;;;20.90;80.00;;;;;;21000295;28;20289;-63
2023/08/10 10:36:13;;;;;;;3.73;2.20;;;21.10;73.90;;;;;;21000363;28;20677;-62
2023/08/10 10:46:33;;;;;;;2.10;1.90;;;21.40;71.30;;;;;;20998688;28;20258;-62
2023/08/10 10:56:35;;;;;;;5.13;2.77;;;21.40;66.50;;;;;;21009041;28;20233;-62
2023/08/10 11:06:38;;;;;;;2.53;1.80;;;21.50;66.10;;;;;;21008603;28;20271;-65
2023/08/10 11:16:44;;;;;;;2.87;1.90;;;21.60;65.80;;;;;;20996980;28;20289;-64
2023/08/10 11:26:49;;;;;;;2.10;1.90;;;21.80;65.10;;;;;;20995407;28;20284;-62
2023/08/10 11:36:52;;;;;;;5.47;2.33;;;21.90;63.80;;;;;;21007368;28;20217;-62
2023/08/10 11:46:56;;;;;;;2.97;2.10;;;22.00;62.90;;;;;;20995671;28;20238;-62
2023/08/10 11:57:08;;;;;;;3.67;2.80;;;22.20;62.70;;;;;;20994449;28;20256;-63
2023/08/10 12:07:09;;;;;;;2.50;1.90;;;22.40;61.60;;;;;;20994152;28;20260;-63
2023/08/10 12:17:11;;;;;;;3.63;2.03;;;22.70;60.30;;;;;;20994181;28;20235;-71
2023/08/10 12:27:15;;;;;;;2.63;1.70;;;22.90;59.40;;;;;;20993184;28;20265;-63
2023/08/10 12:37:16;;;;;;;4.17;1.70;;;23.10;59.10;;;;;;21001239;28;20246;-62
2023/08/10 12:47:18;;;;;;;2.93;2.00;;;23.30;58.40;;;;;;21008905;28;20316;-65
2023/08/10 12:57:21;;;;;;;2.33;1.90;;;23.40;57.70;;;;;;21010493;28;20203;-66
2023/08/10 13:07:23;;;;;;;1.87;1.67;;;23.40;57.80;;;;;;21007125;28;20250;-69
2023/08/10 13:17:32;;;;;;;6.40;1.83;;;23.50;57.30;;;;;;21005416;28;20211;-65
2023/08/10 13:27:34;;;;;;;2.37;2.10;;;23.60;57.40;;;;;;21005591;28;20574;-65
2023/08/10 13:37:38;;;;;;;3.27;2.00;;;23.70;57.00;;;;;;21004595;28;20742;-66
2023/08/10 13:47:40;;;;;;;3.73;2.40;;;23.80;57.10;;;;;;21002052;28;20325;-65
2023/08/10 13:57:41;;;;;;;8.20;2.07;;;24.10;57.60;;;;;;21002312;28;20231;-63
2023/08/10 14:07:44;;;;;;;2.07;1.80;;;;;;;;;;21001289;28;20274;-69
2023/08/10 14:17:46;;;;;;;5.53;2.97;;;;;;;;;;20999483;28;20241;-70
2023/08/10 14:27:48;;;;;;;3.47;1.80;;;;;;;;;;20999284;28;20239;-67
2023/08/10 14:37:50;;;;;;;3.03;2.50;;;;;;;;;;20999648;28;20290;-63
2023/08/10 14:47:59;;;;;;;4.30;1.70;;;;;;;;;;20998934;28;20231;-64
2023/08/10 14:58:02;;;;;;;8.10;1.83;;;;;;;;;;20998319;28;20551;-64
2023/08/10 15:08:05;;;;;;;2.00;1.42;;;;;;;;;;20997102;28;20254;-64
2023/08/10 15:18:07;;;;;;;6.47;5.80;;;;;;;;;;20996678;28;20203;-65
2023/08/10 15:28:09;;;;;;;2.50;1.80;;;24.40;57.30;;;;;;20996306;28;20243;-66
2023/08/10 15:38:11;;;;;;;3.00;2.53;;;;;;;;;;20995752;28;20633;-66
2023/08/10 15:48:14;;;;;;;3.10;2.80;;;;;;;;;;20995458;28;20257;-66
2023/08/10 15:58:16;;;;;;;2.47;1.90;;;;;;;;;;20995454;28;20207;-69
2023/08/10 16:08:18;;;;;;;3.27;1.80;;;;;;;;;;20995989;28;20293;-69
2023/08/10 16:18:21;;;;;;;2.30;1.80;;;28.30;47.40;;;;;;21010979;28;20235;-64
2023/08/10 16:28:22;;;;;;;2.20;1.67;;;25.60;50.50;;;;;;21010210;28;20259;-67
2023/08/10 16:38:24;;;;;;;3.63;1.80;;;25.20;50.40;;;;;;21009619;28;20218;-66
2023/08/10 16:48:26;;;;;;;2.33;2.13;;;25.10;50.80;;;;;;21008456;28;20238;-65
2023/08/10 16:58:28;;;;;;;2.13;1.93;;;25.00;51.30;;;;;;21008115;28;20293;-65
2023/08/10 17:08:30;;;;;;;3.33;2.10;;;24.70;51.50;;;;;;21006830;28;20239;-64
2023/08/10 17:18:32;;;;;;;5.93;1.77;;;24.90;51.70;;;;;;21005932;28;20216;-64
2023/08/10 17:28:34;;;;;;;2.57;2.00;;;24.70;52.20;;;;;;21005970;28;20230;-67
2023/08/10 17:38:36;;;;;;;3.33;2.20;;;24.80;52.40;;;;;;21004814;28;20207;-63
2023/08/10 17:48:37;;;;;;;5.23;2.10;;;24.50;53.10;;;;;;21004072;28;20235;-62
2023/08/10 17:58:42;;;;;;;3.30;1.90;;;24.20;53.60;;;;;;21003960;28;20237;-70
2023/08/10 18:08:45;;;;;;;2.63;2.20;;;24.00;54.40;;;;;;21002457;28;20771;-69
2023/08/10 18:18:47;;;;;;;2.97;2.13;;;23.80;55.30;;;;;;21001645;28;20659;-64
2023/08/10 18:28:49;;;;;;;2.63;2.30;;;23.50;56.50;;;;;;21000654;28;20236;-67
2023/08/10 18:38:51;;;;;;;2.80;2.07;;;23.30;57.10;;;;;;20999361;28;20634;-72
2023/08/10 18:48:52;;;;;;;2.43;2.23;;;23.00;58.00;;;;;;20998512;28;20332;-68
2023/08/10 18:58:54;;;;;;;5.23;2.50;;;22.80;58.70;;;;;;21009524;28;20214;-70
2023/08/10 19:08:56;;;;;;;8.47;4.90;;;22.50;59.80;;;;;;21036960;28;20231;-71
2023/08/10 19:18:57;;;;;;;6.80;3.63;;;22.30;61.60;;;;;;21080001;28;20669;-69
2023/08/10 19:28:59;;;;;;;8.70;4.00;;;22.10;63.10;;;;;;21077720;28;20266;-72
2023/08/10 19:39:03;;;;;;;5.00;2.87;;;21.80;65.40;;;;;;21033839;28;20254;-70
2023/08/10 19:49:05;;;;;;;4.33;2.80;;;21.50;68.10;;;;;;21026753;28;20235;-71
2023/08/10 19:59:08;;;;;;;7.40;3.83;;;21.30;69.50;;;;;;21032515;28;20215;-71
2023/08/10 20:09:10;;;;;;;7.93;3.57;;;21.00;70.80;;;;;;21029558;28;20239;-68
2023/08/10 20:19:12;;;;;;;3.97;3.53;;;;;;;;;;21012139;28;20310;-68
2023/08/10 20:29:17;;;;;;;4.90;3.90;;;;;;;;;;21035962;28;20252;-67
2023/08/10 20:39:19;;;;;;;6.03;3.67;;;;;;;;;;21030680;28;20590;-71
2023/08/10 20:49:28;;;;;;;5.90;4.20;;;;;;;;;;21021916;28;20207;-70
2023/08/10 20:59:34;;;;;;;9.03;3.97;;;;;;;;;;21043370;28;20236;-69
2023/08/10 21:09:37;;;;;;;5.17;3.73;;;;;;;;;;21045025;28;20249;-70
2023/08/10 21:19:39;;;;;;;6.37;3.63;;;;;;;;;;21040192;28;20289;-68
2023/08/10 21:29:41;;;;;;;7.30;4.00;;;;;;;;;;21045094;28;20207;-67
2023/08/10 21:39:45;;;;;;;6.87;4.13;;;;;;;;;;21043213;28;20228;-68
2023/08/10 21:49:48;;;;;;;7.43;3.87;;;;;;;;;;21038457;28;20210;-67
2023/08/10 21:59:50;;;;;;;9.23;4.13;;;;;;;;;;21039343;28;20235;-68
2023/08/10 22:09:52;;;;;;;4.53;4.10;;;;;;;;;;21040520;28;20324;-71
2023/08/10 22:19:54;;;;;;;8.80;4.83;;;;;;;;;;21038370;28;20236;-73
2023/08/10 22:29:56;;;;;;;4.03;3.60;;;;;;;;;;21040588;28;20212;-69
2023/08/10 22:39:59;;;;;;;5.47;4.17;;;;;;;;;;21038390;28;20740;-72
2023/08/10 22:50:01;;;;;;;8.50;4.30;;;20.70;72.40;;;;;;21033504;28;20213;-67
2023/08/10 23:00:05;;;;;;;9.00;4.30;;;17.80;94.10;;;;;;21038400;28;20225;-68
2023/08/10 23:10:07;;;;;;;9.23;5.60;;;17.60;94.60;;;;;;21036362;28;20234;-67
2023/08/10 23:20:11;;;;;;;10.70;4.57;;;17.50;94.90;;;;;;21013594;28;20232;-67
2023/08/10 23:30:14;;;;;;;8.17;4.00;;;17.50;95.30;;;;;;21031717;28;20213;-67
2023/08/10 23:40:16;;;;;;;6.57;3.83;;;17.40;95.50;;;;;;21032165;28;20230;-66
2023/08/10 23:50:18;;;;;;;6.37;4.00;;;17.30;95.80;;;;;;21019051;28;20211;-69
